sensor_id;sensor_type;location;lat;lon;timestamp;P1;durP1;ratioP1;P2;durP2;ratioP2
56299;SDS011;42209;6.376;-10.782;2023-05-16T00:00:57;5.70;;;5.03;;
56299;SDS011;42209;6.376;-10.782;2023-05-16T00:03:25;6.40;;;4.32;;
56299;SDS011;42209;6.376;-10.782;2023-05-16T00:05:54;7.15;;;4.70;;
56299;SDS011;42209;6.376;-10.782;2023-05-16T00:08:22;6.60;;;4.18;;
56299;SDS011;42209;6.376;-10.782;2023-05-16T00:10:50;6.80;;;4.53;;
56299;SDS011;42209;6.376;-10.782;2023-05-16T00:15:32;6.15;;;4.18;;
56299;SDS011;42209;6.376;-10.782;2023-05-16T00:18:01;5.95;;;4.70;;
56299;SDS011;42209;6.376;-10.782;2023-05-16T00:20:29;6.90;;;4.25;;
56299;SDS011;42209;6.376;-10.782;2023-05-16T00:22:57;6.88;;;5.07;;
56299;SDS011;42209;6.376;-10.782;2023-05-16T00:25:25;7.55;;;3.80;;
56299;SDS011;42209;6.376;-10.782;2023-05-16T00:27:54;6.15;;;4.55;;
56299;SDS011;42209;6.376;-10.782;2023-05-16T00:30:24;6.57;;;4.78;;
56299;SDS011;42209;6.376;-10.782;2023-05-16T00:32:53;5.38;;;4.22;;
56299;SDS011;42209;6.376;-10.782;2023-05-16T00:35:22;6.00;;;5.25;;
56299;SDS011;42209;6.376;-10.782;2023-05-16T00:37:50;6.28;;;3.85;;
56299;SDS011;42209;6.376;-10.782;2023-05-16T00:40:20;7.32;;;4.72;;
56299;SDS011;42209;6.376;-10.782;2023-05-16T00:42:48;5.88;;;4.07;;
56299;SDS011;42209;6.376;-10.782;2023-05-16T00:45:17;5.30;;;3.75;;
56299;SDS011;42209;6.376;-10.782;2023-05-16T00:47:45;4.35;;;3.95;;
56299;SDS011;42209;6.376;-10.782;2023-05-16T00:50:13;7.15;;;4.68;;
56299;SDS011;42209;6.376;-10.782;2023-05-16T00:55:13;8.07;;;5.32;;
56299;SDS011;42209;6.376;-10.782;2023-05-16T00:57:42;6.63;;;3.60;;
56299;SDS011;42209;6.376;-10.782;2023-05-16T01:00:10;6.47;;;4.53;;
56299;SDS011;42209;6.376;-10.782;2023-05-16T01:02:40;7.93;;;4.63;;
56299;SDS011;42209;6.376;-10.782;2023-05-16T01:05:10;7.47;;;4.10;;
56299;SDS011;42209;6.376;-10.782;2023-05-16T01:07:38;7.30;;;4.35;;
56299;SDS011;42209;6.376;-10.782;2023-05-16T01:10:06;5.90;;;3.97;;
56299;SDS011;42209;6.376;-10.782;2023-05-16T01:15:13;7.38;;;4.22;;
56299;SDS011;42209;6.376;-10.782;2023-05-16T01:18:07;8.30;;;4.75;;
56299;SDS011;42209;6.376;-10.782;2023-05-16T01:20:47;6.53;;;4.53;;
56299;SDS011;42209;6.376;-10.782;2023-05-16T01:23:39;7.38;;;4.32;;
56299;SDS011;42209;6.376;-10.782;2023-05-16T01:26:12;5.75;;;4.05;;
56299;SDS011;42209;6.376;-10.782;2023-05-16T01:28:44;7.05;;;5.25;;
56299;SDS011;42209;6.376;-10.782;2023-05-16T01:31:13;7.22;;;4.93;;
56299;SDS011;42209;6.376;-10.782;2023-05-16T01:33:41;7.22;;;4.53;;
56299;SDS011;42209;6.376;-10.782;2023-05-16T01:38:40;6.88;;;4.88;;
56299;SDS011;42209;6.376;-10.782;2023-05-16T01:47:23;8.32;;;4.85;;
56299;SDS011;42209;6.376;-10.782;2023-05-16T01:52:37;5.93;;;3.67;;
56299;SDS011;42209;6.376;-10.782;2023-05-16T01:57:58;5.95;;;3.78;;
56299;SDS011;42209;6.376;-10.782;2023-05-16T02:00:29;6.38;;;4.45;;
56299;SDS011;42209;6.376;-10.782;2023-05-16T02:02:58;5.65;;;3.78;;
56299;SDS011;42209;6.376;-10.782;2023-05-16T02:05:27;4.88;;;3.78;;
56299;SDS011;42209;6.376;-10.782;2023-05-16T02:07:57;6.88;;;4.35;;
56299;SDS011;42209;6.376;-10.782;2023-05-16T02:10:26;8.13;;;4.15;;
56299;SDS011;42209;6.376;-10.782;2023-05-16T02:12:55;5.93;;;4.07;;
56299;SDS011;42209;6.376;-10.782;2023-05-16T02:15:23;5.70;;;3.92;;
56299;SDS011;42209;6.376;-10.782;2023-05-16T02:17:52;6.30;;;3.88;;
56299;SDS011;42209;6.376;-10.782;2023-05-16T02:20:21;5.90;;;3.63;;
56299;SDS011;42209;6.376;-10.782;2023-05-16T02:22:56;4.90;;;3.50;;
56299;SDS011;42209;6.376;-10.782;2023-05-16T02:25:24;8.10;;;4.00;;
56299;SDS011;42209;6.376;-10.782;2023-05-16T02:30:21;6.75;;;4.53;;
56299;SDS011;42209;6.376;-10.782;2023-05-16T02:32:49;6.72;;;4.22;;
56299;SDS011;42209;6.376;-10.782;2023-05-16T02:35:19;7.05;;;4.68;;
56299;SDS011;42209;6.376;-10.782;2023-05-16T02:37:47;4.35;;;3.53;;
56299;SDS011;42209;6.376;-10.782;2023-05-16T02:40:15;6.25;;;3.88;;
56299;SDS011;42209;6.376;-10.782;2023-05-16T02:42:44;6.53;;;3.92;;
56299;SDS011;42209;6.376;-10.782;2023-05-16T02:45:12;7.53;;;4.43;;
56299;SDS011;42209;6.376;-10.782;2023-05-16T02:47:40;4.95;;;3.40;;
56299;SDS011;42209;6.376;-10.782;2023-05-16T02:50:08;6.72;;;4.07;;
56299;SDS011;42209;6.376;-10.782;2023-05-16T02:52:37;5.43;;;3.75;;
56299;SDS011;42209;6.376;-10.782;2023-05-16T02:55:05;4.95;;;3.45;;
56299;SDS011;42209;6.376;-10.782;2023-05-16T02:57:37;5.65;;;3.15;;
56299;SDS011;42209;6.376;-10.782;2023-05-16T03:00:05;6.70;;;3.70;;
56299;SDS011;42209;6.376;-10.782;2023-05-16T03:02:34;7.00;;;4.07;;
56299;SDS011;42209;6.376;-10.782;2023-05-16T03:05:03;5.40;;;4.18;;
56299;SDS011;42209;6.376;-10.782;2023-05-16T03:07:31;7.43;;;4.25;;
56299;SDS011;42209;6.376;-10.782;2023-05-16T03:10:04;6.50;;;3.92;;
56299;SDS011;42209;6.376;-10.782;2023-05-16T03:12:34;6.28;;;3.92;;
56299;SDS011;42209;6.376;-10.782;2023-05-16T03:15:03;6.65;;;3.47;;
56299;SDS011;42209;6.376;-10.782;2023-05-16T03:17:35;5.13;;;3.17;;
56299;SDS011;42209;6.376;-10.782;2023-05-16T03:20:03;6.80;;;3.70;;
56299;SDS011;42209;6.376;-10.782;2023-05-16T03:22:32;6.35;;;3.72;;
56299;SDS011;42209;6.376;-10.782;2023-05-16T03:25:01;5.72;;;3.78;;
56299;SDS011;42209;6.376;-10.782;2023-05-16T03:27:29;5.57;;;3.65;;
56299;SDS011;42209;6.376;-10.782;2023-05-16T03:29:58;6.82;;;3.60;;
56299;SDS011;42209;6.376;-10.782;2023-05-16T03:32:28;6.13;;;3.17;;
56299;SDS011;42209;6.376;-10.782;2023-05-16T03:34:56;5.15;;;3.33;;
56299;SDS011;42209;6.376;-10.782;2023-05-16T03:39:53;5.50;;;3.38;;
56299;SDS011;42209;6.376;-10.782;2023-05-16T03:42:21;7.22;;;4.10;;
56299;SDS011;42209;6.376;-10.782;2023-05-16T03:44:50;5.65;;;3.20;;
56299;SDS011;42209;6.376;-10.782;2023-05-16T03:47:18;8.25;;;4.13;;
56299;SDS011;42209;6.376;-10.782;2023-05-16T03:49:46;7.47;;;3.35;;
56299;SDS011;42209;6.376;-10.782;2023-05-16T03:52:15;8.02;;;3.53;;
56299;SDS011;42209;6.376;-10.782;2023-05-16T03:54:43;5.50;;;3.13;;
56299;SDS011;42209;6.376;-10.782;2023-05-16T03:57:11;6.68;;;3.13;;
56299;SDS011;42209;6.376;-10.782;2023-05-16T03:59:39;6.38;;;3.42;;
56299;SDS011;42209;6.376;-10.782;2023-05-16T04:02:08;5.93;;;3.30;;
56299;SDS011;42209;6.376;-10.782;2023-05-16T04:04:36;8.10;;;3.40;;
56299;SDS011;42209;6.376;-10.782;2023-05-16T04:07:04;7.68;;;3.80;;
56299;SDS011;42209;6.376;-10.782;2023-05-16T04:09:32;6.30;;;3.45;;
56299;SDS011;42209;6.376;-10.782;2023-05-16T04:12:01;5.22;;;3.30;;
56299;SDS011;42209;6.376;-10.782;2023-05-16T04:14:29;6.22;;;3.63;;
56299;SDS011;42209;6.376;-10.782;2023-05-16T04:16:57;6.28;;;3.42;;
56299;SDS011;42209;6.376;-10.782;2023-05-16T04:19:26;8.65;;;4.28;;
56299;SDS011;42209;6.376;-10.782;2023-05-16T04:21:54;11.88;;;3.47;;
56299;SDS011;42209;6.376;-10.782;2023-05-16T04:24:22;4.82;;;2.75;;
56299;SDS011;42209;6.376;-10.782;2023-05-16T04:26:50;5.88;;;3.28;;
56299;SDS011;42209;6.376;-10.782;2023-05-16T04:29:20;7.90;;;3.75;;
56299;SDS011;42209;6.376;-10.782;2023-05-16T04:34:16;5.07;;;3.00;;
56299;SDS011;42209;6.376;-10.782;2023-05-16T04:36:45;7.50;;;3.05;;
56299;SDS011;42209;6.376;-10.782;2023-05-16T04:39:13;5.68;;;3.30;;
56299;SDS011;42209;6.376;-10.782;2023-05-16T04:41:42;6.72;;;3.50;;
56299;SDS011;42209;6.376;-10.782;2023-05-16T04:44:10;5.20;;;2.95;;
56299;SDS011;42209;6.376;-10.782;2023-05-16T04:46:38;5.90;;;2.65;;
56299;SDS011;42209;6.376;-10.782;2023-05-16T04:49:06;5.90;;;3.05;;
56299;SDS011;42209;6.376;-10.782;2023-05-16T04:51:37;3.72;;;2.30;;
56299;SDS011;42209;6.376;-10.782;2023-05-16T04:54:05;4.78;;;2.58;;
56299;SDS011;42209;6.376;-10.782;2023-05-16T04:56:33;5.60;;;2.95;;
56299;SDS011;42209;6.376;-10.782;2023-05-16T04:59:01;7.30;;;2.90;;
56299;SDS011;42209;6.376;-10.782;2023-05-16T05:01:30;5.78;;;2.80;;
56299;SDS011;42209;6.376;-10.782;2023-05-16T05:03:58;7.20;;;3.28;;
56299;SDS011;42209;6.376;-10.782;2023-05-16T05:06:26;4.57;;;2.25;;
56299;SDS011;42209;6.376;-10.782;2023-05-16T05:08:56;5.60;;;2.72;;
56299;SDS011;42209;6.376;-10.782;2023-05-16T05:11:24;6.63;;;3.13;;
56299;SDS011;42209;6.376;-10.782;2023-05-16T05:13:52;3.70;;;2.35;;
56299;SDS011;42209;6.376;-10.782;2023-05-16T05:16:21;4.78;;;3.00;;
56299;SDS011;42209;6.376;-10.782;2023-05-16T05:18:49;9.10;;;3.00;;
56299;SDS011;42209;6.376;-10.782;2023-05-16T05:21:17;7.88;;;2.67;;
56299;SDS011;42209;6.376;-10.782;2023-05-16T05:23:46;5.28;;;2.58;;
56299;SDS011;42209;6.376;-10.782;2023-05-16T05:26:14;8.07;;;2.63;;
56299;SDS011;42209;6.376;-10.782;2023-05-16T05:31:23;7.20;;;3.13;;
56299;SDS011;42209;6.376;-10.782;2023-05-16T05:33:51;5.00;;;2.67;;
56299;SDS011;42209;6.376;-10.782;2023-05-16T05:36:19;5.45;;;2.78;;
56299;SDS011;42209;6.376;-10.782;2023-05-16T05:38:47;4.38;;;2.15;;
56299;SDS011;42209;6.376;-10.782;2023-05-16T05:41:16;3.85;;;2.03;;
56299;SDS011;42209;6.376;-10.782;2023-05-16T05:43:44;5.07;;;2.42;;
56299;SDS011;42209;6.376;-10.782;2023-05-16T05:46:12;5.13;;;2.40;;
56299;SDS011;42209;6.376;-10.782;2023-05-16T05:48:41;5.63;;;2.28;;
56299;SDS011;42209;6.376;-10.782;2023-05-16T05:51:09;5.22;;;2.80;;
56299;SDS011;42209;6.376;-10.782;2023-05-16T05:53:38;5.75;;;2.90;;
56299;SDS011;42209;6.376;-10.782;2023-05-16T05:56:07;5.15;;;2.40;;
56299;SDS011;42209;6.376;-10.782;2023-05-16T05:58:35;3.72;;;2.50;;
56299;SDS011;42209;6.376;-10.782;2023-05-16T06:01:05;4.22;;;2.00;;
56299;SDS011;42209;6.376;-10.782;2023-05-16T06:03:34;3.67;;;1.98;;
56299;SDS011;42209;6.376;-10.782;2023-05-16T06:06:02;3.80;;;1.80;;
56299;SDS011;42209;6.376;-10.782;2023-05-16T06:08:31;3.50;;;1.70;;
56299;SDS011;42209;6.376;-10.782;2023-05-16T06:11:00;5.22;;;2.08;;
56299;SDS011;42209;6.376;-10.782;2023-05-16T06:15:29;4.85;;;2.03;;
56299;SDS011;42209;6.376;-10.782;2023-05-16T06:17:58;4.07;;;2.08;;
56299;SDS011;42209;6.376;-10.782;2023-05-16T06:20:27;4.70;;;2.67;;
56299;SDS011;42209;6.376;-10.782;2023-05-16T06:22:55;5.75;;;2.10;;
56299;SDS011;42209;6.376;-10.782;2023-05-16T06:25:24;3.97;;;2.28;;
56299;SDS011;42209;6.376;-10.782;2023-05-16T06:27:53;5.88;;;2.10;;
56299;SDS011;42209;6.376;-10.782;2023-05-16T06:30:21;4.55;;;2.25;;
56299;SDS011;42209;6.376;-10.782;2023-05-16T06:32:49;5.95;;;2.38;;
56299;SDS011;42209;6.376;-10.782;2023-05-16T06:35:18;4.80;;;2.17;;
56299;SDS011;42209;6.376;-10.782;2023-05-16T06:37:46;5.85;;;2.50;;
56299;SDS011;42209;6.376;-10.782;2023-05-16T06:40:14;4.15;;;1.92;;
56299;SDS011;42209;6.376;-10.782;2023-05-16T06:42:43;3.08;;;2.17;;
56299;SDS011;42209;6.376;-10.782;2023-05-16T06:45:11;4.65;;;2.05;;
56299;SDS011;42209;6.376;-10.782;2023-05-16T06:47:39;3.65;;;2.30;;
56299;SDS011;42209;6.376;-10.782;2023-05-16T06:50:07;4.43;;;2.10;;
56299;SDS011;42209;6.376;-10.782;2023-05-16T06:52:36;4.82;;;2.08;;
56299;SDS011;42209;6.376;-10.782;2023-05-16T06:55:04;4.28;;;2.28;;
56299;SDS011;42209;6.376;-10.782;2023-05-16T06:57:40;4.75;;;2.75;;
56299;SDS011;42209;6.376;-10.782;2023-05-16T07:00:08;4.45;;;1.98;;
56299;SDS011;42209;6.376;-10.782;2023-05-16T07:02:37;5.75;;;2.30;;
56299;SDS011;42209;6.376;-10.782;2023-05-16T07:05:06;4.43;;;1.80;;
56299;SDS011;42209;6.376;-10.782;2023-05-16T07:07:34;5.53;;;2.88;;
56299;SDS011;42209;6.376;-10.782;2023-05-16T07:10:03;7.25;;;3.50;;
56299;SDS011;42209;6.376;-10.782;2023-05-16T07:12:31;5.57;;;3.30;;
56299;SDS011;42209;6.376;-10.782;2023-05-16T07:15:02;6.20;;;2.92;;
56299;SDS011;42209;6.376;-10.782;2023-05-16T07:17:31;8.15;;;3.40;;
56299;SDS011;42209;6.376;-10.782;2023-05-16T07:20:00;8.75;;;3.20;;
56299;SDS011;42209;6.376;-10.782;2023-05-16T07:22:31;7.43;;;3.42;;
56299;SDS011;42209;6.376;-10.782;2023-05-16T07:24:59;13.48;;;3.60;;
56299;SDS011;42209;6.376;-10.782;2023-05-16T07:27:28;8.18;;;3.75;;
56299;SDS011;42209;6.376;-10.782;2023-05-16T07:29:56;8.68;;;4.00;;
56299;SDS011;42209;6.376;-10.782;2023-05-16T07:32:24;12.38;;;4.10;;
56299;SDS011;42209;6.376;-10.782;2023-05-16T07:34:54;8.90;;;3.55;;
56299;SDS011;42209;6.376;-10.782;2023-05-16T07:37:22;11.68;;;4.18;;
56299;SDS011;42209;6.376;-10.782;2023-05-16T07:39:50;10.13;;;4.20;;
56299;SDS011;42209;6.376;-10.782;2023-05-16T07:42:19;11.90;;;5.00;;
56299;SDS011;42209;6.376;-10.782;2023-05-16T07:44:47;11.25;;;4.47;;
56299;SDS011;42209;6.376;-10.782;2023-05-16T07:47:16;11.45;;;3.88;;
56299;SDS011;42209;6.376;-10.782;2023-05-16T07:49:44;13.05;;;4.15;;
56299;SDS011;42209;6.376;-10.782;2023-05-16T07:52:12;6.63;;;3.60;;
56299;SDS011;42209;6.376;-10.782;2023-05-16T07:54:40;8.98;;;3.75;;
56299;SDS011;42209;6.376;-10.782;2023-05-16T07:57:08;9.68;;;4.00;;
56299;SDS011;42209;6.376;-10.782;2023-05-16T07:59:37;8.82;;;3.75;;
56299;SDS011;42209;6.376;-10.782;2023-05-16T08:02:05;8.35;;;3.35;;
56299;SDS011;42209;6.376;-10.782;2023-05-16T08:04:34;5.95;;;3.60;;
56299;SDS011;42209;6.376;-10.782;2023-05-16T08:07:02;7.57;;;4.28;;
56299;SDS011;42209;6.376;-10.782;2023-05-16T08:09:30;6.55;;;3.90;;
56299;SDS011;42209;6.376;-10.782;2023-05-16T08:11:59;7.80;;;3.78;;
56299;SDS011;42209;6.376;-10.782;2023-05-16T08:14:27;7.97;;;4.13;;
56299;SDS011;42209;6.376;-10.782;2023-05-16T08:16:58;6.07;;;3.72;;
56299;SDS011;42209;6.376;-10.782;2023-05-16T08:19:27;8.13;;;4.00;;
56299;SDS011;42209;6.376;-10.782;2023-05-16T08:21:55;6.50;;;3.38;;
56299;SDS011;42209;6.376;-10.782;2023-05-16T08:24:23;7.30;;;4.15;;
56299;SDS011;42209;6.376;-10.782;2023-05-16T08:26:52;7.20;;;3.75;;
56299;SDS011;42209;6.376;-10.782;2023-05-16T08:29:20;6.72;;;3.55;;
56299;SDS011;42209;6.376;-10.782;2023-05-16T08:31:48;6.57;;;3.42;;
56299;SDS011;42209;6.376;-10.782;2023-05-16T08:34:17;7.80;;;3.58;;
56299;SDS011;42209;6.376;-10.782;2023-05-16T08:36:45;4.70;;;2.80;;
56299;SDS011;42209;6.376;-10.782;2023-05-16T08:39:13;7.70;;;3.60;;
56299;SDS011;42209;6.376;-10.782;2023-05-16T08:41:42;7.45;;;3.47;;
56299;SDS011;42209;6.376;-10.782;2023-05-16T08:44:10;5.57;;;3.50;;
56299;SDS011;42209;6.376;-10.782;2023-05-16T08:46:39;5.15;;;3.17;;
56299;SDS011;42209;6.376;-10.782;2023-05-16T08:49:08;5.13;;;3.00;;
56299;SDS011;42209;6.376;-10.782;2023-05-16T08:51:37;6.38;;;3.22;;
56299;SDS011;42209;6.376;-10.782;2023-05-16T08:54:09;5.95;;;3.55;;
56299;SDS011;42209;6.376;-10.782;2023-05-16T08:56:43;6.88;;;3.88;;
56299;SDS011;42209;6.376;-10.782;2023-05-16T08:59:11;6.53;;;3.95;;
56299;SDS011;42209;6.376;-10.782;2023-05-16T09:01:40;6.95;;;3.30;;
56299;SDS011;42209;6.376;-10.782;2023-05-16T09:04:09;7.28;;;3.40;;
56299;SDS011;42209;6.376;-10.782;2023-05-16T09:06:38;4.53;;;2.88;;
56299;SDS011;42209;6.376;-10.782;2023-05-16T09:09:06;8.05;;;3.78;;
56299;SDS011;42209;6.376;-10.782;2023-05-16T09:11:34;6.72;;;2.75;;
56299;SDS011;42209;6.376;-10.782;2023-05-16T09:14:03;5.63;;;3.00;;
56299;SDS011;42209;6.376;-10.782;2023-05-16T09:19:00;4.45;;;3.15;;
56299;SDS011;42209;6.376;-10.782;2023-05-16T09:21:29;7.05;;;2.78;;
56299;SDS011;42209;6.376;-10.782;2023-05-16T09:24:06;8.18;;;3.13;;
56299;SDS011;42209;6.376;-10.782;2023-05-16T09:26:37;4.55;;;3.33;;
56299;SDS011;42209;6.376;-10.782;2023-05-16T09:29:10;7.13;;;2.97;;
56299;SDS011;42209;6.376;-10.782;2023-05-16T09:31:39;6.18;;;3.00;;
56299;SDS011;42209;6.376;-10.782;2023-05-16T09:34:08;4.82;;;2.63;;
56299;SDS011;42209;6.376;-10.782;2023-05-16T09:36:37;7.32;;;2.85;;
56299;SDS011;42209;6.376;-10.782;2023-05-16T09:39:07;5.78;;;3.50;;
56299;SDS011;42209;6.376;-10.782;2023-05-16T09:41:36;6.20;;;3.40;;
56299;SDS011;42209;6.376;-10.782;2023-05-16T09:44:04;4.20;;;2.53;;
56299;SDS011;42209;6.376;-10.782;2023-05-16T09:46:33;6.80;;;3.38;;
56299;SDS011;42209;6.376;-10.782;2023-05-16T09:49:02;6.32;;;2.83;;
56299;SDS011;42209;6.376;-10.782;2023-05-16T09:51:30;6.55;;;3.17;;
56299;SDS011;42209;6.376;-10.782;2023-05-16T09:53:59;11.98;;;3.30;;
56299;SDS011;42209;6.376;-10.782;2023-05-16T09:56:27;8.73;;;2.90;;
56299;SDS011;42209;6.376;-10.782;2023-05-16T09:58:55;9.65;;;3.20;;
56299;SDS011;42209;6.376;-10.782;2023-05-16T10:01:23;13.32;;;3.65;;
56299;SDS011;42209;6.376;-10.782;2023-05-16T10:03:52;12.25;;;3.20;;
56299;SDS011;42209;6.376;-10.782;2023-05-16T10:06:20;17.05;;;3.63;;
56299;SDS011;42209;6.376;-10.782;2023-05-16T10:11:23;17.55;;;3.67;;
56299;SDS011;42209;6.376;-10.782;2023-05-16T10:13:54;28.60;;;4.47;;
56299;SDS011;42209;6.376;-10.782;2023-05-16T10:16:23;24.10;;;4.72;;
56299;SDS011;42209;6.376;-10.782;2023-05-16T10:18:52;18.15;;;4.32;;
56299;SDS011;42209;6.376;-10.782;2023-05-16T10:21:21;16.38;;;3.67;;
56299;SDS011;42209;6.376;-10.782;2023-05-16T10:23:52;18.00;;;4.10;;
56299;SDS011;42209;6.376;-10.782;2023-05-16T10:26:27;12.70;;;3.63;;
56299;SDS011;42209;6.376;-10.782;2023-05-16T10:28:57;8.35;;;3.33;;
56299;SDS011;42209;6.376;-10.782;2023-05-16T10:31:27;8.98;;;3.08;;
56299;SDS011;42209;6.376;-10.782;2023-05-16T10:36:24;7.32;;;3.03;;
56299;SDS011;42209;6.376;-10.782;2023-05-16T10:38:52;9.13;;;3.35;;
56299;SDS011;42209;6.376;-10.782;2023-05-16T10:41:22;10.93;;;3.33;;
56299;SDS011;42209;6.376;-10.782;2023-05-16T10:43:59;7.68;;;3.13;;
56299;SDS011;42209;6.376;-10.782;2023-05-16T10:46:27;10.10;;;2.83;;
56299;SDS011;42209;6.376;-10.782;2023-05-16T10:48:56;7.05;;;3.40;;
56299;SDS011;42209;6.376;-10.782;2023-05-16T10:54:03;8.80;;;3.53;;
56299;SDS011;42209;6.376;-10.782;2023-05-16T10:56:40;8.40;;;3.20;;
56299;SDS011;42209;6.376;-10.782;2023-05-16T10:59:24;5.63;;;2.83;;
56299;SDS011;42209;6.376;-10.782;2023-05-16T11:01:53;6.53;;;2.40;;
56299;SDS011;42209;6.376;-10.782;2023-05-16T11:04:44;7.50;;;2.83;;
56299;SDS011;42209;6.376;-10.782;2023-05-16T11:07:18;5.60;;;2.28;;
56299;SDS011;42209;6.376;-10.782;2023-05-16T11:11:38;6.30;;;2.55;;
56299;SDS011;42209;6.376;-10.782;2023-05-16T11:14:16;6.28;;;2.72;;
56299;SDS011;42209;6.376;-10.782;2023-05-16T11:16:52;5.43;;;2.28;;
56299;SDS011;42209;6.376;-10.782;2023-05-16T11:22:30;5.20;;;2.28;;
56299;SDS011;42209;6.376;-10.782;2023-05-16T11:25:03;4.85;;;1.90;;
56299;SDS011;42209;6.376;-10.782;2023-05-16T11:27:44;6.55;;;2.22;;
56299;SDS011;42209;6.376;-10.782;2023-05-16T11:30:19;7.80;;;2.72;;
56299;SDS011;42209;6.376;-10.782;2023-05-16T11:32:48;8.73;;;3.42;;
56299;SDS011;42209;6.376;-10.782;2023-05-16T11:35:17;7.10;;;3.00;;
56299;SDS011;42209;6.376;-10.782;2023-05-16T11:40:13;6.75;;;2.83;;
56299;SDS011;42209;6.376;-10.782;2023-05-16T11:42:43;5.70;;;2.83;;
56299;SDS011;42209;6.376;-10.782;2023-05-16T11:45:16;7.93;;;2.72;;
56299;SDS011;42209;6.376;-10.782;2023-05-16T11:47:46;4.85;;;2.05;;
56299;SDS011;42209;6.376;-10.782;2023-05-16T11:50:16;7.47;;;2.80;;
56299;SDS011;42209;6.376;-10.782;2023-05-16T11:52:47;4.63;;;2.80;;
56299;SDS011;42209;6.376;-10.782;2023-05-16T11:55:26;4.63;;;2.03;;
56299;SDS011;42209;6.376;-10.782;2023-05-16T11:58:09;6.38;;;2.83;;
56299;SDS011;42209;6.376;-10.782;2023-05-16T12:00:46;7.00;;;2.35;;
56299;SDS011;42209;6.376;-10.782;2023-05-16T12:03:16;4.97;;;2.42;;
56299;SDS011;42209;6.376;-10.782;2023-05-16T12:05:52;5.88;;;2.38;;
56299;SDS011;42209;6.376;-10.782;2023-05-16T12:08:21;8.10;;;2.22;;
56299;SDS011;42209;6.376;-10.782;2023-05-16T12:10:50;6.05;;;2.25;;
56299;SDS011;42209;6.376;-10.782;2023-05-16T12:13:22;8.65;;;2.72;;
56299;SDS011;42209;6.376;-10.782;2023-05-16T12:15:51;9.02;;;2.88;;
56299;SDS011;42209;6.376;-10.782;2023-05-16T12:18:20;4.90;;;3.13;;
56299;SDS011;42209;6.376;-10.782;2023-05-16T12:23:17;5.88;;;2.67;;
56299;SDS011;42209;6.376;-10.782;2023-05-16T12:25:45;8.48;;;2.85;;
56299;SDS011;42209;6.376;-10.782;2023-05-16T12:28:14;5.13;;;2.10;;
56299;SDS011;42209;6.376;-10.782;2023-05-16T12:30:43;5.18;;;2.28;;
56299;SDS011;42209;6.376;-10.782;2023-05-16T12:33:12;7.22;;;3.25;;
56299;SDS011;42209;6.376;-10.782;2023-05-16T12:35:43;5.30;;;2.40;;
56299;SDS011;42209;6.376;-10.782;2023-05-16T12:38:12;7.18;;;2.53;;
56299;SDS011;42209;6.376;-10.782;2023-05-16T12:40:42;7.07;;;2.80;;
56299;SDS011;42209;6.376;-10.782;2023-05-16T12:43:14;5.70;;;2.08;;
56299;SDS011;42209;6.376;-10.782;2023-05-16T12:45:50;7.85;;;2.53;;
56299;SDS011;42209;6.376;-10.782;2023-05-16T12:48:19;7.38;;;2.60;;
56299;SDS011;42209;6.376;-10.782;2023-05-16T12:50:49;7.05;;;2.65;;
56299;SDS011;42209;6.376;-10.782;2023-05-16T12:53:17;11.35;;;2.20;;
56299;SDS011;42209;6.376;-10.782;2023-05-16T12:55:46;6.07;;;2.53;;
56299;SDS011;42209;6.376;-10.782;2023-05-16T12:58:14;5.22;;;2.53;;
56299;SDS011;42209;6.376;-10.782;2023-05-16T13:00:43;7.78;;;2.58;;
56299;SDS011;42209;6.376;-10.782;2023-05-16T13:03:12;7.90;;;2.80;;
56299;SDS011;42209;6.376;-10.782;2023-05-16T13:05:40;4.13;;;2.50;;
56299;SDS011;42209;6.376;-10.782;2023-05-16T13:08:08;6.20;;;2.47;;
56299;SDS011;42209;6.376;-10.782;2023-05-16T13:10:37;8.27;;;2.15;;
56299;SDS011;42209;6.376;-10.782;2023-05-16T13:13:05;5.75;;;2.22;;
56299;SDS011;42209;6.376;-10.782;2023-05-16T13:15:33;7.28;;;2.20;;
56299;SDS011;42209;6.376;-10.782;2023-05-16T13:18:02;6.70;;;2.17;;
56299;SDS011;42209;6.376;-10.782;2023-05-16T13:23:58;6.43;;;2.40;;
56299;SDS011;42209;6.376;-10.782;2023-05-16T13:28:55;7.50;;;2.80;;
56299;SDS011;42209;6.376;-10.782;2023-05-16T13:38:22;6.68;;;2.22;;
56299;SDS011;42209;6.376;-10.782;2023-05-16T13:40:51;7.97;;;2.88;;
56299;SDS011;42209;6.376;-10.782;2023-05-16T13:43:19;4.40;;;2.25;;
56299;SDS011;42209;6.376;-10.782;2023-05-16T13:45:47;6.68;;;2.65;;
56299;SDS011;42209;6.376;-10.782;2023-05-16T13:48:15;7.28;;;2.65;;
56299;SDS011;42209;6.376;-10.782;2023-05-16T13:50:44;5.75;;;2.40;;
56299;SDS011;42209;6.376;-10.782;2023-05-16T13:53:12;7.15;;;2.25;;
56299;SDS011;42209;6.376;-10.782;2023-05-16T13:55:41;4.43;;;2.38;;
56299;SDS011;42209;6.376;-10.782;2023-05-16T13:58:09;7.70;;;2.45;;
56299;SDS011;42209;6.376;-10.782;2023-05-16T14:00:37;5.88;;;2.20;;
56299;SDS011;42209;6.376;-10.782;2023-05-16T14:03:11;4.70;;;2.20;;
56299;SDS011;42209;6.376;-10.782;2023-05-16T14:05:40;6.15;;;2.55;;
56299;SDS011;42209;6.376;-10.782;2023-05-16T14:08:09;4.90;;;2.67;;
56299;SDS011;42209;6.376;-10.782;2023-05-16T14:10:37;5.05;;;1.90;;
56299;SDS011;42209;6.376;-10.782;2023-05-16T14:13:05;5.03;;;2.78;;
56299;SDS011;42209;6.376;-10.782;2023-05-16T14:15:33;4.75;;;2.28;;
56299;SDS011;42209;6.376;-10.782;2023-05-16T14:18:02;7.10;;;2.92;;
56299;SDS011;42209;6.376;-10.782;2023-05-16T14:20:30;5.38;;;2.63;;
56299;SDS011;42209;6.376;-10.782;2023-05-16T14:22:59;6.38;;;2.60;;
56299;SDS011;42209;6.376;-10.782;2023-05-16T14:25:27;6.88;;;2.38;;
56299;SDS011;42209;6.376;-10.782;2023-05-16T14:27:56;5.22;;;2.47;;
56299;SDS011;42209;6.376;-10.782;2023-05-16T14:30:24;5.70;;;2.40;;
56299;SDS011;42209;6.376;-10.782;2023-05-16T14:32:53;5.70;;;2.70;;
56299;SDS011;42209;6.376;-10.782;2023-05-16T14:35:21;7.00;;;3.28;;
56299;SDS011;42209;6.376;-10.782;2023-05-16T14:37:50;6.03;;;3.47;;
56299;SDS011;42209;6.376;-10.782;2023-05-16T14:40:18;6.57;;;2.72;;
56299;SDS011;42209;6.376;-10.782;2023-05-16T14:42:46;5.50;;;2.80;;
56299;SDS011;42209;6.376;-10.782;2023-05-16T14:45:15;5.18;;;2.90;;
56299;SDS011;42209;6.376;-10.782;2023-05-16T14:47:43;9.10;;;3.33;;
56299;SDS011;42209;6.376;-10.782;2023-05-16T14:50:11;6.78;;;3.63;;
56299;SDS011;42209;6.376;-10.782;2023-05-16T14:52:40;10.15;;;4.07;;
56299;SDS011;42209;6.376;-10.782;2023-05-16T14:55:11;6.97;;;2.97;;
56299;SDS011;42209;6.376;-10.782;2023-05-16T14:57:39;7.07;;;3.47;;
56299;SDS011;42209;6.376;-10.782;2023-05-16T15:00:13;9.20;;;4.13;;
56299;SDS011;42209;6.376;-10.782;2023-05-16T15:02:42;8.20;;;3.83;;
56299;SDS011;42209;6.376;-10.782;2023-05-16T15:05:11;7.13;;;3.17;;
56299;SDS011;42209;6.376;-10.782;2023-05-16T15:07:39;7.78;;;4.22;;
56299;SDS011;42209;6.376;-10.782;2023-05-16T15:10:08;6.55;;;4.00;;
56299;SDS011;42209;6.376;-10.782;2023-05-16T15:12:36;7.20;;;3.47;;
56299;SDS011;42209;6.376;-10.782;2023-05-16T15:15:04;6.57;;;3.85;;
56299;SDS011;42209;6.376;-10.782;2023-05-16T15:17:34;6.50;;;3.92;;
56299;SDS011;42209;6.376;-10.782;2023-05-16T15:20:02;8.70;;;3.92;;
56299;SDS011;42209;6.376;-10.782;2023-05-16T15:22:46;7.38;;;3.97;;
56299;SDS011;42209;6.376;-10.782;2023-05-16T15:25:14;6.28;;;4.40;;
56299;SDS011;42209;6.376;-10.782;2023-05-16T15:27:43;6.80;;;3.03;;
56299;SDS011;42209;6.376;-10.782;2023-05-16T15:30:11;7.63;;;4.03;;
56299;SDS011;42209;6.376;-10.782;2023-05-16T15:32:39;6.35;;;3.65;;
56299;SDS011;42209;6.376;-10.782;2023-05-16T15:35:07;8.75;;;3.78;;
56299;SDS011;42209;6.376;-10.782;2023-05-16T15:37:36;6.57;;;3.45;;
56299;SDS011;42209;6.376;-10.782;2023-05-16T15:40:06;8.95;;;3.72;;
56299;SDS011;42209;6.376;-10.782;2023-05-16T15:42:35;6.95;;;3.45;;
56299;SDS011;42209;6.376;-10.782;2023-05-16T15:45:03;6.78;;;3.50;;
56299;SDS011;42209;6.376;-10.782;2023-05-16T15:47:31;5.43;;;3.72;;
56299;SDS011;42209;6.376;-10.782;2023-05-16T15:50:00;12.73;;;3.80;;
56299;SDS011;42209;6.376;-10.782;2023-05-16T15:52:28;5.00;;;2.88;;